createdAt,value
2023-10-02T00:01:05.007Z,97756.38
2023-10-02T00:03:33.048Z,97754.22
2023-10-02T00:06:00.779Z,97755.88
2023-10-02T00:08:40.979Z,97750.13
2023-10-02T00:11:36.029Z,97746.97
2023-10-02T00:14:20.807Z,97737.84
2023-10-02T00:17:04.999Z,97741.34
2023-10-02T00:19:37.291Z,97744.34
2023-10-02T00:22:07.928Z,97744.66
2023-10-02T00:24:38.604Z,97736.53
2023-10-02T00:27:09.477Z,97740.53
2023-10-02T00:29:52.073Z,97739.06
2023-10-02T00:32:21.103Z,97736.56
2023-10-02T00:34:49.202Z,97741.38
2023-10-02T00:37:17.356Z,97736.09
2023-10-02T00:39:48.766Z,97731.75
2023-10-02T00:42:18.109Z,97735.72
2023-10-02T00:44:55.798Z,97741.53
2023-10-02T00:47:46.090Z,97724.66
2023-10-02T00:50:20.850Z,97731.44
2023-10-02T00:52:54.058Z,97736.06
2023-10-02T00:55:22.683Z,97729.13
2023-10-02T00:57:53.960Z,97731.94
2023-10-02T01:00:22.986Z,97724.34
2023-10-02T01:02:58.696Z,97730.31
2023-10-02T01:05:32.472Z,97730.44
2023-10-02T01:08:01.362Z,97732.78
2023-10-02T01:10:31.512Z,97723.69
2023-10-02T01:13:06.892Z,97724.31
2023-10-02T01:15:48.843Z,97727.16
2023-10-02T01:18:28.952Z,97725.66
2023-10-02T01:20:58.080Z,97728.63
2023-10-02T01:23:27.475Z,97732.59
2023-10-02T01:26:01.758Z,97727.63
2023-10-02T01:28:34.019Z,97724.34
2023-10-02T01:31:21.728Z,97719.84
2023-10-02T01:33:50.674Z,97706.47
2023-10-02T01:36:20.559Z,97715.06
2023-10-02T01:38:48.255Z,97714.56
2023-10-02T01:41:17.573Z,97716.06
2023-10-02T01:43:47.250Z,97714.41
2023-10-02T01:46:19.069Z,97708.47
2023-10-02T01:48:49.956Z,97712.09
2023-10-02T01:51:28.274Z,97714.22
2023-10-02T01:53:59.600Z,97707.78
2023-10-02T01:56:30.580Z,97716.41
2023-10-02T01:59:09.806Z,97712.75
2023-10-02T02:01:48.010Z,97707.28
2023-10-02T02:04:16.204Z,97715.22
2023-10-02T02:06:53.816Z,97699.69
2023-10-02T02:09:24.637Z,97707.28
2023-10-02T02:12:07.610Z,97708.28
2023-10-02T02:14:42.563Z,97701.81
2023-10-02T02:17:12.674Z,97698.69
2023-10-02T02:19:49.716Z,97697.84
2023-10-02T02:22:18.904Z,97697.50
2023-10-02T02:24:47.621Z,97702.13
2023-10-02T02:27:18.583Z,97699.97
2023-10-02T02:29:46.433Z,97700.63
2023-10-02T02:34:41.783Z,97704.59
2023-10-02T02:37:10.080Z,97711.53
2023-10-02T02:39:40.123Z,97718.66
2023-10-02T02:42:11.115Z,97714.56
2023-10-02T02:44:42.316Z,97728.59
2023-10-02T02:47:09.519Z,97725.13
2023-10-02T02:49:51.646Z,97718.34
2023-10-02T02:52:26.497Z,97722.13
2023-10-02T02:55:00.298Z,97730.38
2023-10-02T02:57:28.815Z,97720.31
2023-10-02T03:00:19.367Z,97716.16
2023-10-02T03:02:49.026Z,97726.75
2023-10-02T03:05:17.381Z,97725.59
2023-10-02T03:07:46.968Z,97715.16
2023-10-02T03:10:17.912Z,97722.75
2023-10-02T03:12:47.240Z,97732.34
2023-10-02T03:15:19.465Z,97727.38
2023-10-02T03:17:47.656Z,97721.09
2023-10-02T03:20:24.536Z,97730.00
2023-10-02T03:22:55.127Z,97730.34
2023-10-02T03:25:42.504Z,97726.72
2023-10-02T03:28:17.769Z,97725.88
2023-10-02T03:30:49.383Z,97727.03
2023-10-02T03:33:21.315Z,97728.34
2023-10-02T03:35:59.216Z,97724.19
2023-10-02T03:38:27.465Z,97724.16
2023-10-02T03:40:56.523Z,97725.66
2023-10-02T03:43:35.806Z,97726.50
2023-10-02T03:46:07.542Z,97726.63
2023-10-02T03:48:36.420Z,97735.09
2023-10-02T03:51:05.678Z,97732.75
2023-10-02T03:53:35.078Z,97740.50
2023-10-02T03:56:18.093Z,97733.91
2023-10-02T03:58:45.939Z,97733.72
2023-10-02T04:01:18.866Z,97729.56
2023-10-02T04:04:07.440Z,97728.56
2023-10-02T04:06:38.497Z,97722.06
2023-10-02T04:09:14.719Z,97735.16
2023-10-02T04:11:43.768Z,97732.00
2023-10-02T04:14:19.389Z,97733.16
2023-10-02T04:16:50.182Z,97735.78
2023-10-02T04:19:19.632Z,97734.78
2023-10-02T04:21:46.498Z,97738.56
2023-10-02T04:24:14.498Z,97736.25
2023-10-02T04:26:43.345Z,97732.16
2023-10-02T04:29:27.745Z,97732.47
2023-10-02T04:32:16.769Z,97743.84
2023-10-02T04:34:57.576Z,97735.09
2023-10-02T04:37:24.714Z,97734.25
2023-10-02T04:40:01.672Z,97735.91
2023-10-02T04:42:30.465Z,97737.25
2023-10-02T04:44:59.116Z,97739.09
2023-10-02T04:47:28.335Z,97732.16
2023-10-02T04:50:15.042Z,97726.88
2023-10-02T04:52:58.009Z,97732.16
2023-10-02T04:55:29.253Z,97724.38
2023-10-02T04:58:04.313Z,97735.78
2023-10-02T05:00:34.978Z,97729.19
2023-10-02T05:03:11.502Z,97728.03
2023-10-02T05:05:43.455Z,97735.13
2023-10-02T05:08:20.003Z,97727.53
2023-10-02T05:10:51.112Z,97730.31
2023-10-02T05:13:35.942Z,97727.53
2023-10-02T05:16:15.083Z,97732.50
2023-10-02T05:18:46.135Z,97717.28
2023-10-02T05:21:17.796Z,97731.00
2023-10-02T05:23:57.476Z,97742.53
2023-10-02T05:26:40.696Z,97739.91
2023-10-02T05:29:11.091Z,97741.25
2023-10-02T05:31:42.242Z,97734.47
2023-10-02T05:34:14.548Z,97739.78
2023-10-02T05:36:56.909Z,97741.28
2023-10-02T05:39:32.967Z,97738.34
2023-10-02T05:42:07.191Z,97741.31
2023-10-02T05:44:36.080Z,97733.41
2023-10-02T05:47:10.240Z,97739.53
2023-10-02T05:49:44.659Z,97745.84
2023-10-02T05:52:13.186Z,97738.28
2023-10-02T05:54:48.459Z,97742.38
2023-10-02T05:57:18.106Z,97739.94
2023-10-02T05:59:47.520Z,97747.88
2023-10-02T06:02:16.042Z,97751.22
2023-10-02T06:04:48.734Z,97756.22
2023-10-02T06:07:37.936Z,97755.88
2023-10-02T06:10:09.807Z,97747.31
2023-10-02T06:12:43.749Z,97755.75
2023-10-02T06:15:32.275Z,97756.56
2023-10-02T06:18:00.723Z,97750.13
2023-10-02T06:20:29.877Z,97760.06
2023-10-02T06:23:07.632Z,97745.97
2023-10-02T06:25:36.002Z,97763.53
2023-10-02T06:28:20.704Z,97760.38
2023-10-02T06:30:49.135Z,97762.88
2023-10-02T06:33:18.701Z,97754.28
2023-10-02T06:35:57.617Z,97754.91
2023-10-02T06:38:25.520Z,97751.44
2023-10-02T06:40:58.159Z,97749.25
2023-10-02T06:43:30.730Z,97754.38
2023-10-02T06:46:10.370Z,97756.34
2023-10-02T06:48:40.460Z,97748.81
2023-10-02T06:51:09.853Z,97749.56
2023-10-02T06:53:42.098Z,97755.63
2023-10-02T06:56:12.179Z,97751.34
2023-10-02T06:58:50.287Z,97743.91
2023-10-02T07:01:19.668Z,97746.91
2023-10-02T07:03:52.263Z,97751.34
2023-10-02T07:06:21.919Z,97752.63
2023-10-02T07:09:09.712Z,97752.81
2023-10-02T07:11:40.145Z,97752.47
2023-10-02T07:14:07.923Z,97758.78
2023-10-02T07:16:36.237Z,97750.66
2023-10-02T07:19:05.327Z,97750.56
2023-10-02T07:21:36.732Z,97751.34
2023-10-02T07:24:20.351Z,97752.63
2023-10-02T07:26:50.893Z,97757.22
2023-10-02T07:29:19.299Z,97754.13
2023-10-02T07:31:47.773Z,97748.81
2023-10-02T07:34:17.312Z,97745.22
2023-10-02T07:36:46.823Z,97738.38
2023-10-02T07:39:34.844Z,97730.88
2023-10-02T07:42:02.922Z,97739.84
2023-10-02T07:44:37.914Z,97727.81
2023-10-02T07:47:11.517Z,97736.78
2023-10-02T07:49:40.381Z,97739.75
2023-10-02T07:52:10.731Z,97722.97
2023-10-02T07:54:46.563Z,97739.00
2023-10-02T07:57:15.303Z,97733.44
2023-10-02T07:59:45.147Z,97738.22
2023-10-02T08:02:24.304Z,97730.19
2023-10-02T08:04:53.194Z,97727.97
2023-10-02T08:07:30.635Z,97727.19
2023-10-02T08:10:11.783Z,97723.91
2023-10-02T08:12:51.872Z,97720.19
2023-10-02T08:15:28.416Z,97725.31
2023-10-02T08:18:05.417Z,97721.81
2023-10-02T08:20:38.330Z,97718.88
2023-10-02T08:23:24.497Z,97727.97
2023-10-02T08:26:25.232Z,97725.06
2023-10-02T08:28:55.424Z,97727.84
2023-10-02T08:31:28.657Z,97733.19
2023-10-02T08:34:09.817Z,97727.66
2023-10-02T08:36:41.962Z,97725.31
2023-10-02T08:39:20.195Z,97724.16
2023-10-02T08:41:52.065Z,97720.38
2023-10-02T08:44:19.905Z,97715.94
2023-10-02T08:46:49.268Z,97710.47
2023-10-02T08:49:17.833Z,97721.78
2023-10-02T08:51:51.062Z,97721.94
2023-10-02T08:54:20.615Z,97700.66
2023-10-02T08:57:07.253Z,97711.81
2023-10-02T08:59:39.733Z,97716.75
2023-10-02T09:02:10.130Z,97707.78
2023-10-02T09:04:37.994Z,97704.97
2023-10-02T09:07:18.057Z,97703.25
2023-10-02T09:09:56.255Z,97705.72
2023-10-02T09:12:24.341Z,97697.94
2023-10-02T09:14:55.872Z,97708.38
2023-10-02T09:17:24.618Z,97701.91
2023-10-02T09:19:57.753Z,97692.75
2023-10-02T09:22:27.223Z,97702.34
2023-10-02T09:25:25.097Z,97697.53
2023-10-02T09:27:57.795Z,97697.69
2023-10-02T09:30:40.987Z,97702.19
2023-10-02T09:33:20.600Z,97700.88
2023-10-02T09:36:17.989Z,97696.69
2023-10-02T09:38:52.379Z,97695.44
2023-10-02T09:41:24.719Z,97693.63
2023-10-02T09:43:53.730Z,97702.19
2023-10-02T09:46:24.039Z,97695.63
2023-10-02T09:49:05.216Z,97691.53
2023-10-02T09:51:46.472Z,97689.69
2023-10-02T09:54:21.969Z,97682.75
2023-10-02T09:57:06.059Z,97676.81
2023-10-02T09:59:38.980Z,97686.81
2023-10-02T10:02:31.238Z,97684.78
2023-10-02T10:05:20.740Z,97680.47
2023-10-02T10:08:20.344Z,97682.94
2023-10-02T10:10:50.401Z,97681.94
2023-10-02T10:13:38.079Z,97677.84
2023-10-02T10:16:37.582Z,97677.00
2023-10-02T10:19:32.130Z,97670.00
2023-10-02T10:22:02.128Z,97663.69
2023-10-02T10:24:33.233Z,97665.78
2023-10-02T10:27:02.223Z,97657.28
2023-10-02T10:29:42.522Z,97656.81
2023-10-02T10:32:25.213Z,97641.75
2023-10-02T10:35:14.498Z,97646.34
2023-10-02T10:37:43.079Z,97637.09
2023-10-02T10:40:24.634Z,97636.16
2023-10-02T10:43:00.496Z,97643.28
2023-10-02T10:45:34.543Z,97646.19
2023-10-02T10:48:03.036Z,97630.28
2023-10-02T10:50:31.656Z,97633.31
2023-10-02T10:53:23.512Z,97636.97
2023-10-02T10:55:56.256Z,97628.22
2023-10-02T10:58:32.649Z,97628.63
2023-10-02T11:01:03.692Z,97619.19
2023-10-02T11:03:32.695Z,97632.38
2023-10-02T11:06:04.255Z,97626.41
2023-10-02T11:08:34.455Z,97624.84
2023-10-02T11:11:03.308Z,97623.44
2023-10-02T11:13:31.453Z,97617.94
2023-10-02T11:18:29.411Z,97618.28
2023-10-02T11:20:59.032Z,97608.75
2023-10-02T11:23:38.790Z,97609.84
2023-10-02T11:26:12.383Z,97610.84
2023-10-02T11:28:42.045Z,97596.78
2023-10-02T11:31:30.807Z,97613.94
2023-10-02T11:34:20.163Z,97611.53
2023-10-02T11:36:55.276Z,97602.53
2023-10-02T11:39:28.455Z,97599.00
2023-10-02T11:41:56.612Z,97604.97
2023-10-02T11:44:24.566Z,97599.91
2023-10-02T11:46:52.234Z,97591.44
2023-10-02T11:49:21.293Z,97596.16
2023-10-02T11:51:48.878Z,97590.38
2023-10-02T11:54:18.581Z,97588.34
2023-10-02T11:56:48.066Z,97583.84
2023-10-02T11:59:16.607Z,97585.97
2023-10-02T12:01:44.645Z,97583.00
2023-10-02T12:04:12.799Z,97577.97
2023-10-02T12:06:42.161Z,97575.66
2023-10-02T12:09:18.760Z,97575.75
2023-10-02T12:11:46.815Z,97566.41
2023-10-02T12:14:14.667Z,97567.03
2023-10-02T12:16:42.930Z,97560.28
2023-10-02T12:19:11.755Z,97559.97
2023-10-02T12:21:46.301Z,97556.88
2023-10-02T12:24:16.227Z,97557.56
2023-10-02T12:26:45.077Z,97550.31
2023-10-02T12:29:13.104Z,97549.72
2023-10-02T12:31:41.447Z,97547.63
2023-10-02T12:34:09.359Z,97544.63
2023-10-02T12:36:36.973Z,97542.94
2023-10-02T12:39:10.873Z,97540.41
2023-10-02T12:41:38.500Z,97536.91
2023-10-02T12:44:08.991Z,97535.81
2023-10-02T12:46:44.321Z,97531.59
2023-10-02T12:49:14.277Z,97539.84
2023-10-02T12:51:42.681Z,97531.22
2023-10-02T12:54:12.927Z,97524.56
2023-10-02T12:56:41.137Z,97531.50
2023-10-02T12:59:10.607Z,97515.28
2023-10-02T13:01:38.252Z,97521.31
2023-10-02T13:04:06.315Z,97520.16
2023-10-02T13:06:34.708Z,97511.34
2023-10-02T13:09:10.010Z,97516.78
2023-10-02T13:11:40.847Z,97514.72
2023-10-02T13:14:10.726Z,97506.94
2023-10-02T13:16:39.236Z,97510.91
2023-10-02T13:19:10.480Z,97503.09
2023-10-02T13:21:39.132Z,97508.34
2023-10-02T13:24:07.912Z,97503.38
2023-10-02T13:26:37.620Z,97505.88
2023-10-02T13:29:07.164Z,97501.50
2023-10-02T13:31:34.854Z,97495.31
2023-10-02T13:34:06.293Z,97498.31
2023-10-02T13:36:34.527Z,97491.81
2023-10-02T13:39:06.690Z,97496.84
2023-10-02T13:41:36.117Z,97483.50
2023-10-02T13:44:05.168Z,97472.31
2023-10-02T13:46:38.190Z,97470.72
2023-10-02T13:49:06.292Z,97468.28
2023-10-02T13:51:34.081Z,97457.06
2023-10-02T13:54:02.613Z,97466.41
2023-10-02T13:56:34.507Z,97448.41
2023-10-02T13:59:03.827Z,97445.81
2023-10-02T14:01:34.111Z,97437.81
2023-10-02T14:04:07.970Z,97439.38
2023-10-02T14:06:36.731Z,97437.88
2023-10-02T14:09:11.767Z,97432.78
2023-10-02T14:11:41.517Z,97433.47
2023-10-02T14:14:09.599Z,97432.09
2023-10-02T14:16:37.372Z,97423.66
2023-10-02T14:19:07.874Z,97430.88
2023-10-02T14:21:36.049Z,97437.34
2023-10-02T14:24:05.942Z,97433.06
2023-10-02T14:26:33.704Z,97426.00
2023-10-02T14:29:02.020Z,97417.03
2023-10-02T14:31:32.560Z,97418.72
2023-10-02T14:34:01.153Z,97425.03
2023-10-02T14:36:31.093Z,97425.97
2023-10-02T14:39:00.031Z,97425.50
2023-10-02T14:41:29.266Z,97422.06
2023-10-02T14:43:57.900Z,97412.31
2023-10-02T14:46:25.867Z,97409.88
2023-10-02T14:48:54.639Z,97413.56
2023-10-02T14:51:23.641Z,97410.69
2023-10-02T14:53:52.943Z,97409.44
2023-10-02T14:56:22.180Z,97404.41
2023-10-02T14:58:50.321Z,97404.47
2023-10-02T15:01:20.239Z,97399.59
2023-10-02T15:03:49.441Z,97396.31
2023-10-02T15:06:17.759Z,97399.56
2023-10-02T15:08:45.384Z,97393.06
2023-10-02T15:11:17.101Z,97394.25
2023-10-02T15:13:46.496Z,97398.13
2023-10-02T15:16:15.869Z,97397.06
2023-10-02T15:18:44.980Z,97400.81
2023-10-02T15:21:13.091Z,97403.78
2023-10-02T15:23:41.868Z,97401.22
2023-10-02T15:26:12.272Z,97401.56
2023-10-02T15:28:41.547Z,97403.09
2023-10-02T15:31:09.356Z,97407.53
2023-10-02T15:33:38.109Z,97401.59
2023-10-02T15:36:06.150Z,97399.69
2023-10-02T15:38:33.792Z,97407.91
2023-10-02T15:41:02.740Z,97403.25
2023-10-02T15:43:31.099Z,97402.97
2023-10-02T15:46:00.490Z,97404.25
2023-10-02T15:48:28.356Z,97395.09
2023-10-02T15:50:56.248Z,97402.88
2023-10-02T15:53:25.363Z,97405.94
2023-10-02T15:55:53.644Z,97394.69
2023-10-02T15:58:22.707Z,97395.59
2023-10-02T16:00:52.527Z,97391.97
2023-10-02T16:03:21.858Z,97391.44
2023-10-02T16:05:49.564Z,97389.06
2023-10-02T16:08:17.240Z,97394.47
2023-10-02T16:10:45.375Z,97398.59
2023-10-02T16:13:12.985Z,97398.34
2023-10-02T16:15:40.797Z,97395.63
2023-10-02T16:18:09.550Z,97393.50
2023-10-02T16:20:40.483Z,97397.22
2023-10-02T16:23:08.479Z,97382.84
2023-10-02T16:25:36.089Z,97398.78
2023-10-02T16:28:06.446Z,97393.38
2023-10-02T16:30:37.342Z,97394.91
2023-10-02T16:33:07.079Z,97386.28
2023-10-02T16:35:38.362Z,97378.16
2023-10-02T16:38:12.086Z,97383.06
2023-10-02T16:40:39.843Z,97382.28
2023-10-02T16:43:07.598Z,97364.06
2023-10-02T16:45:35.292Z,97386.66
2023-10-02T16:48:04.729Z,97378.25
2023-10-02T16:50:32.677Z,97374.38
2023-10-02T16:53:02.409Z,97380.44
2023-10-02T16:55:31.154Z,97377.59
2023-10-02T16:57:59.189Z,97385.00
2023-10-02T17:00:29.076Z,97380.81
2023-10-02T17:02:57.436Z,97389.03
2023-10-02T17:05:26.026Z,97382.56
2023-10-02T17:07:55.178Z,97390.78
2023-10-02T17:10:24.973Z,97392.72
2023-10-02T17:12:58.155Z,97393.91
2023-10-02T17:15:27.088Z,97388.25
2023-10-02T17:17:55.484Z,97393.06
2023-10-02T17:20:26.876Z,97392.31
2023-10-02T17:22:54.867Z,97396.78
2023-10-02T17:25:27.319Z,97393.53
2023-10-02T17:27:57.169Z,97392.59
2023-10-02T17:30:25.853Z,97398.44
2023-10-02T17:32:54.906Z,97396.03
2023-10-02T17:35:22.822Z,97392.81
2023-10-02T17:37:50.773Z,97400.88
2023-10-02T17:40:21.210Z,97394.75
2023-10-02T17:42:50.350Z,97395.22
2023-10-02T17:45:18.307Z,97398.75
2023-10-02T17:47:46.779Z,97394.94
2023-10-02T17:50:16.110Z,97395.41
2023-10-02T17:52:43.846Z,97384.97
2023-10-02T17:55:11.855Z,97385.75
2023-10-02T17:57:39.645Z,97389.72
2023-10-02T18:00:14.045Z,97391.38
2023-10-02T18:02:42.594Z,97395.13
2023-10-02T18:05:11.037Z,97383.84
2023-10-02T18:07:39.190Z,97384.88
2023-10-02T18:10:07.426Z,97388.16
2023-10-02T18:12:36.321Z,97383.25
2023-10-02T18:15:05.596Z,97380.38
2023-10-02T18:17:34.687Z,97377.72
2023-10-02T18:20:03.147Z,97383.91
2023-10-02T18:22:31.811Z,97385.38
2023-10-02T18:25:02.069Z,97387.41
2023-10-02T18:27:29.664Z,97382.47
2023-10-02T18:29:58.116Z,97389.84
2023-10-02T18:32:26.223Z,97396.84
2023-10-02T18:34:55.436Z,97394.78
2023-10-02T18:37:23.595Z,97390.91
2023-10-02T18:39:51.237Z,97397.06
2023-10-02T18:42:19.897Z,97394.63
2023-10-02T18:44:47.827Z,97389.53
2023-10-02T18:47:20.414Z,97388.72
2023-10-02T18:49:49.030Z,97392.81
2023-10-02T18:52:17.997Z,97392.00
2023-10-02T18:54:45.726Z,97392.22
2023-10-02T18:57:14.550Z,97385.84
2023-10-02T18:59:42.282Z,97390.13
2023-10-02T19:02:10.328Z,97385.81
2023-10-02T19:04:38.044Z,97389.94
2023-10-02T19:07:05.807Z,97385.81
2023-10-02T19:09:35.006Z,97385.59
2023-10-02T19:12:02.788Z,97381.09
2023-10-02T19:14:30.577Z,97378.41
2023-10-02T19:16:58.266Z,97379.03
2023-10-02T19:19:25.913Z,97374.31
2023-10-02T19:21:53.964Z,97381.28
2023-10-02T19:24:22.693Z,97377.16
2023-10-02T19:26:53.233Z,97371.84
2023-10-02T19:29:20.861Z,97379.22
2023-10-02T19:31:49.831Z,97373.47
2023-10-02T19:34:19.749Z,97369.38
2023-10-02T19:36:47.428Z,97370.59
2023-10-02T19:39:15.057Z,97368.53
2023-10-02T19:41:42.846Z,97364.44
2023-10-02T19:44:12.426Z,97368.50
2023-10-02T19:46:40.591Z,97369.09
2023-10-02T19:49:08.894Z,97366.84
2023-10-02T19:51:37.046Z,97368.09
2023-10-02T19:54:05.193Z,97363.13
2023-10-02T19:56:32.930Z,97360.06
2023-10-02T19:59:00.763Z,97353.28
2023-10-02T20:01:30.046Z,97359.00
2023-10-02T20:03:58.406Z,97357.78
2023-10-02T20:06:26.319Z,97362.69
2023-10-02T20:08:55.971Z,97345.44
2023-10-02T20:11:24.136Z,97347.91
2023-10-02T20:13:51.911Z,97339.06
2023-10-02T20:16:19.774Z,97339.47
2023-10-02T20:18:48.867Z,97338.78
2023-10-02T20:21:18.232Z,97337.53
2023-10-02T20:23:52.883Z,97333.63
2023-10-02T20:26:22.319Z,97315.97
2023-10-02T20:28:50.683Z,97334.66
2023-10-02T20:31:18.958Z,97331.53
2023-10-02T20:33:48.098Z,97338.50
2023-10-02T20:36:15.880Z,97339.06
2023-10-02T20:38:44.350Z,97324.09
2023-10-02T20:41:12.062Z,97333.34
2023-10-02T20:43:39.690Z,97335.56
2023-10-02T20:46:07.374Z,97336.34
2023-10-02T20:48:39.435Z,97347.78
2023-10-02T20:51:08.500Z,97346.72
2023-10-02T20:53:36.157Z,97348.75
2023-10-02T20:56:04.031Z,97347.28
2023-10-02T20:58:31.623Z,97343.56
2023-10-02T21:01:00.969Z,97351.72
2023-10-02T21:03:28.681Z,97358.28
2023-10-02T21:05:56.462Z,97352.69
2023-10-02T21:08:25.462Z,97348.59
2023-10-02T21:10:53.486Z,97349.78
2023-10-02T21:13:21.110Z,97350.78
2023-10-02T21:15:48.982Z,97354.44
2023-10-02T21:18:19.757Z,97352.59
2023-10-02T21:20:52.598Z,97347.66
2023-10-02T21:23:21.266Z,97336.97
2023-10-02T21:25:50.550Z,97348.88
2023-10-02T21:28:18.324Z,97349.88
2023-10-02T21:30:47.780Z,97343.13
2023-10-02T21:33:15.674Z,97338.38
2023-10-02T21:35:43.538Z,97334.47
2023-10-02T21:38:11.711Z,97334.84
2023-10-02T21:40:39.320Z,97330.09
2023-10-02T21:43:08.368Z,97327.03
2023-10-02T21:45:36.002Z,97325.16
2023-10-02T21:48:04.991Z,97312.28
2023-10-02T21:50:32.817Z,97309.19
2023-10-02T21:53:00.701Z,97314.06
2023-10-02T21:55:29.103Z,97325.91
2023-10-02T21:57:58.480Z,97320.59
2023-10-02T22:00:36.298Z,97320.38
2023-10-02T22:03:07.641Z,97317.72
2023-10-02T22:05:35.583Z,97311.22
2023-10-02T22:08:03.544Z,97314.25
2023-10-02T22:10:31.626Z,97312.16
2023-10-02T22:12:59.335Z,97309.91
2023-10-02T22:15:30.416Z,97311.91
2023-10-02T22:17:58.382Z,97309.78
2023-10-02T22:20:26.810Z,97301.56
2023-10-02T22:22:54.623Z,97311.31
2023-10-02T22:25:22.348Z,97309.81
2023-10-02T22:27:50.411Z,97311.44
2023-10-02T22:30:19.977Z,97310.59
2023-10-02T22:32:49.849Z,97309.16
2023-10-02T22:35:20.186Z,97311.00
2023-10-02T22:37:48.438Z,97306.88
2023-10-02T22:40:21.160Z,97299.09
2023-10-02T22:42:51.484Z,97296.13
2023-10-02T22:45:20.199Z,97303.53
2023-10-02T22:47:49.390Z,97298.59
2023-10-02T22:50:17.738Z,97290.38
2023-10-02T22:52:46.942Z,97288.78
2023-10-02T22:55:14.809Z,97292.28
2023-10-02T22:57:42.422Z,97284.50
2023-10-02T23:00:16.807Z,97294.31
2023-10-02T23:02:45.670Z,97287.91
2023-10-02T23:05:15.030Z,97288.28
2023-10-02T23:07:45.117Z,97296.41
2023-10-02T23:10:16.476Z,97286.25
2023-10-02T23:12:45.225Z,97302.34
2023-10-02T23:15:13.501Z,97292.31
2023-10-02T23:17:41.385Z,97284.91
2023-10-02T23:20:14.072Z,97292.44
2023-10-02T23:22:44.070Z,97298.47
2023-10-02T23:25:14.170Z,97294.53
2023-10-02T23:27:42.077Z,97289.59
2023-10-02T23:30:11.563Z,97291.19
2023-10-02T23:32:39.530Z,97296.50
2023-10-02T23:35:08.417Z,97294.66
2023-10-02T23:37:35.990Z,97285.06
2023-10-02T23:40:12.786Z,97274.63
2023-10-02T23:42:41.256Z,97270.31
2023-10-02T23:45:15.439Z,97262.94
2023-10-02T23:47:45.277Z,97261.56
2023-10-02T23:50:17.634Z,97263.97
2023-10-02T23:52:47.562Z,97265.59
2023-10-02T23:55:24.368Z,97260.94
2023-10-02T23:57:53.876Z,97257.28
